Time;durP1;ratioP1;P1;durP2;ratioP2;P2;SDS_P1;SDS_P2;PMS_P1;PMS_P2;Temp;Humidity;BMP_temperature;BMP_pressure;BME280_temperature;BME280_humidity;BME280_pressure;Samples;Min_cycle;Max_cycle;Signal;HPM_P1;HPM_P2
2023/12/05 00:00:36;;;;;;;106.83;35.83;;;;;;;-6.77;99.26;100492.13;4187867;28;20234;-71
2023/12/05 00:03:03;;;;;;;108.30;35.90;;;;;;;-6.77;98.80;100497.41;4189074;28;20243;-70
2023/12/05 00:05:29;;;;;;;104.93;35.73;;;;;;;-6.79;98.93;100490.41;4186729;28;21163;-70
2023/12/05 00:07:56;;;;;;;105.73;35.33;;;;;;;-6.80;98.83;100492.19;4183560;28;20237;-70
2023/12/05 00:10:23;;;;;;;103.23;36.13;;;;;;;-6.82;99.01;100493.13;4190020;28;21329;-72
2023/12/05 00:12:49;;;;;;;107.47;36.13;;;;;;;-6.83;99.00;100494.03;4168124;28;20248;-72
2023/12/05 00:15:16;;;;;;;111.97;37.03;;;;;;;-6.83;99.06;100494.03;4196113;28;20237;-69
2023/12/05 00:17:43;;;;;;;102.90;34.97;;;;;;;-6.81;98.98;100489.59;4190771;28;21745;-71
2023/12/05 00:20:10;;;;;;;104.47;36.93;;;;;;;-6.81;98.91;100485.19;4185699;28;20229;-69
2023/12/05 00:22:37;;;;;;;109.03;36.53;;;;;;;-6.83;98.73;100484.34;4186770;28;23774;-70
2023/12/05 00:25:04;;;;;;;104.60;34.97;;;;;;;-6.84;99.10;100482.66;4168483;28;21476;-69
2023/12/05 00:27:31;;;;;;;109.00;35.63;;;;;;;-6.85;99.30;100475.66;4189184;28;20233;-71
2023/12/05 00:29:58;;;;;;;95.87;34.27;;;;;;;-6.84;99.22;100477.38;4187465;28;20248;-71
2023/12/05 00:32:25;;;;;;;99.30;35.57;;;;;;;-6.87;99.21;100472.19;4188751;28;20257;-71
2023/12/05 00:34:52;;;;;;;111.03;35.83;;;;;;;-6.81;99.13;100468.56;4192072;28;21530;-70
2023/12/05 00:37:19;;;;;;;99.13;34.07;;;;;;;-6.80;99.18;100473.75;4187362;28;20237;-72
2023/12/05 00:39:45;;;;;;;109.43;36.10;;;;;;;-6.79;99.14;100470.25;4184586;28;22502;-72
2023/12/05 00:42:12;;;;;;;98.73;35.37;;;;;;;-6.80;99.27;100468.50;4188271;28;20229;-70
2023/12/05 00:44:38;;;;;;;96.70;34.33;;;;;;;-6.79;99.06;100461.47;4189140;28;22015;-71
2023/12/05 00:47:05;;;;;;;105.40;33.83;;;;;;;-6.79;99.38;100471.97;4183246;28;20239;-71
2023/12/05 00:49:34;;;;;;;106.67;35.87;;;;;;;-6.75;99.14;100468.41;4187432;28;20615;-71
2023/12/05 00:52:01;;;;;;;102.37;34.67;;;;;;;-6.72;99.27;100466.56;4184821;28;20246;-72
2023/12/05 00:54:27;;;;;;;91.37;32.50;;;;;;;-6.69;99.20;100470.88;4191042;28;20606;-72
2023/12/05 00:56:55;;;;;;;105.90;33.80;;;;;;;-6.67;98.97;100461.19;4184296;28;20276;-70
2023/12/05 00:59:21;;;;;;;103.83;33.97;;;;;;;-6.64;98.89;100468.13;4188400;28;20521;-71
2023/12/05 01:01:48;;;;;;;99.37;34.50;;;;;;;-6.71;99.14;100465.66;4187385;28;21886;-70
2023/12/05 01:04:15;;;;;;;100.00;34.17;;;;;;;-6.72;99.06;100471.81;4185370;28;20316;-72
2023/12/05 01:06:43;;;;;;;96.20;33.07;;;;;;;-6.70;99.15;100461.25;4186063;28;20338;-71
2023/12/05 01:09:10;;;;;;;96.07;33.53;;;;;;;-6.73;99.14;100459.56;4184502;28;20296;-70
2023/12/05 01:11:37;;;;;;;93.67;31.30;;;;;;;-6.73;99.05;100454.28;4186315;28;20279;-70
2023/12/05 01:14:04;;;;;;;99.33;34.10;;;;;;;-6.70;98.98;100459.50;4187401;28;21826;-71
2023/12/05 01:16:30;;;;;;;100.17;33.53;;;;;;;-6.67;98.48;100458.53;4193515;28;20258;-72
2023/12/05 01:18:57;;;;;;;86.97;30.63;;;;;;;-6.74;99.15;100449.91;4184079;28;20240;-71
2023/12/05 01:21:23;;;;;;;90.10;32.47;;;;;;;-6.68;98.76;100441.88;4183247;28;20234;-69
2023/12/05 01:23:50;;;;;;;97.50;31.10;;;;;;;-6.72;98.82;100442.00;4185651;28;20575;-70
2023/12/05 01:26:17;;;;;;;95.53;32.07;;;;;;;-6.73;99.18;100435.00;4185663;28;20307;-72
2023/12/05 01:28:43;;;;;;;91.73;31.90;;;;;;;-6.74;98.68;100434.13;4181669;28;20233;-71
2023/12/05 01:31:10;;;;;;;98.00;32.13;;;;;;;-6.62;98.62;100432.97;4192118;28;20352;-69
2023/12/05 01:33:37;;;;;;;95.77;32.40;;;;;;;-6.64;98.53;100428.63;4177090;28;20300;-70
2023/12/05 01:36:11;;;;;;;87.23;31.23;;;;;;;-6.64;98.50;100421.59;4181923;28;20348;-70
2023/12/05 01:38:39;;;;;;;91.83;30.63;;;;;;;-6.73;98.67;100419.22;4185629;28;20258;-70
2023/12/05 01:41:07;;;;;;;87.20;31.17;;;;;;;-6.71;98.80;100410.38;4186017;28;21574;-69
2023/12/05 01:43:34;;;;;;;92.77;31.67;;;;;;;-6.82;98.87;100395.75;4182641;28;20229;-72
2023/12/05 01:46:02;;;;;;;89.47;31.37;;;;;;;-6.72;98.94;100406.00;4184748;28;23378;-70
2023/12/05 01:48:30;;;;;;;89.30;30.73;;;;;;;-6.74;98.54;100404.31;4183800;28;20261;-69
2023/12/05 01:50:59;;;;;;;89.20;30.13;;;;;;;-6.69;98.23;100407.69;4182216;28;20344;-70
2023/12/05 01:53:27;;;;;;;81.27;30.53;;;;;;;-6.74;98.36;100418.34;4193224;28;20241;-71
2023/12/05 01:55:55;;;;;;;91.37;31.43;;;;;;;-6.76;98.89;100408.75;4178631;28;21765;-71
2023/12/05 01:58:22;;;;;;;88.23;32.10;;;;;;;-6.76;98.88;100411.38;4187003;28;20249;-69
2023/12/05 02:00:49;;;;;;;81.73;29.23;;;;;;;-6.78;98.99;100398.28;4183551;28;20233;-70
2023/12/05 02:03:16;;;;;;;83.17;30.13;;;;;;;-6.67;98.89;100405.88;4195212;28;20250;-70
2023/12/05 02:05:43;;;;;;;86.77;29.87;;;;;;;-6.74;98.75;100399.91;4180750;28;20235;-68
2023/12/05 02:08:12;;;;;;;81.77;29.73;;;;;;;-6.76;98.52;100382.44;4189587;28;21756;-69
2023/12/05 02:10:39;;;;;;;79.90;28.10;;;;;;;-6.70;98.72;100379.63;4189178;28;20243;-71
2023/12/05 02:13:06;;;;;;;78.57;28.17;;;;;;;-6.69;98.65;100386.63;4194663;28;20228;-70
2023/12/05 02:15:33;;;;;;;75.93;28.07;;;;;;;-6.64;98.52;100386.50;4199998;28;20260;-72
2023/12/05 02:18:16;;;;;;;82.00;27.73;;;;;;;-6.64;98.54;100383.88;4199819;28;22109;-70
2023/12/05 02:21:09;;;;;;;70.80;27.10;;;;;;;-6.54;98.76;100390.66;4187361;28;20299;-71
2023/12/05 02:23:38;;;;;;;78.47;27.77;;;;;;;-6.49;98.49;100388.75;4203953;28;21066;-72
2023/12/05 02:26:50;;;;;;;70.00;27.57;;;;;;;-6.53;98.18;100393.22;4199151;28;21425;-71
2023/12/05 02:29:17;;;;;;;72.27;25.57;;;;;;;-6.51;98.26;100393.19;4192623;28;20308;-72
2023/12/05 02:31:43;;;;;;;74.93;27.03;;;;;;;-6.50;97.93;100394.06;4193048;28;23380;-71
2023/12/05 02:34:10;;;;;;;72.50;28.13;;;;;;;-6.50;97.91;100388.81;4194241;28;20626;-70
2023/12/05 02:36:43;;;;;;;75.20;25.80;;;;;;;-6.44;97.97;100386.00;4193387;28;20617;-71
2023/12/05 02:39:25;;;;;;;71.33;26.70;;;;;;;-6.45;97.56;100387.75;4188244;28;20245;-70
2023/12/05 02:41:54;;;;;;;70.40;26.17;;;;;;;-6.45;98.01;100393.03;4195380;28;20306;-72
2023/12/05 02:44:24;;;;;;;68.80;25.30;;;;;;;-6.42;97.65;100392.09;4195213;28;20616;-73
2023/12/05 02:46:51;;;;;;;70.37;26.67;;;;;;;-6.44;97.46;100386.84;4191421;28;20557;-72
2023/12/05 02:49:19;;;;;;;72.53;25.87;;;;;;;-6.42;97.47;100392.09;4187477;28;20252;-72
2023/12/05 02:51:45;;;;;;;71.47;26.47;;;;;;;-6.45;97.07;100394.81;4182423;28;20251;-73
2023/12/05 02:54:12;;;;;;;74.03;27.47;;;;;;;-6.39;96.91;100398.16;4188955;28;21347;-72
2023/12/05 02:56:39;;;;;;;75.30;27.47;;;;;;;-6.42;96.71;100398.22;4178792;28;20244;-73
2023/12/05 02:59:06;;;;;;;68.83;27.20;;;;;;;-6.43;96.39;100393.84;4188333;28;21371;-71
2023/12/05 03:01:38;;;;;;;87.90;26.27;;;;;;;-6.48;96.61;100385.22;4186028;28;20237;-70
2023/12/05 03:04:06;;;;;;;67.67;25.73;;;;;;;-6.40;96.69;100398.16;4179761;28;20230;-73
2023/12/05 03:06:33;;;;;;;71.43;25.83;;;;;;;-6.41;96.47;100391.16;4180029;28;20237;-71
2023/12/05 03:09:03;;;;;;;72.73;26.50;;;;;;;-6.41;96.35;100381.50;4178482;28;26160;-72
2023/12/05 03:11:31;;;;;;;68.47;24.43;;;;;;;-6.35;96.40;100390.16;4190831;28;20244;-72
2023/12/05 03:13:59;;;;;;;73.83;25.60;;;;;;;-6.27;96.16;100389.03;4184651;28;20237;-72
2023/12/05 03:16:26;;;;;;;64.03;25.37;;;;;;;-6.33;95.83;100385.72;4187450;28;21149;-71
2023/12/05 03:18:53;;;;;;;71.90;27.43;;;;;;;-6.27;95.73;100389.03;4182063;28;20306;-72
2023/12/05 03:21:21;;;;;;;74.57;25.40;;;;;;;-6.24;95.75;100388.09;4183269;28;23916;-72
2023/12/05 03:23:48;;;;;;;73.70;25.33;;;;;;;-6.22;95.64;100381.00;4185736;28;20308;-71
2023/12/05 03:26:18;;;;;;;63.77;25.53;;;;;;;-6.19;95.61;100375.66;4176102;28;22661;-72
2023/12/05 03:28:47;;;;;;;66.93;25.40;;;;;;;-6.09;95.04;100379.78;4182096;28;20236;-72
2023/12/05 03:31:14;;;;;;;67.97;23.67;;;;;;;-6.03;94.88;100383.13;4183251;28;20237;-73
2023/12/05 03:33:41;;;;;;;68.37;24.97;;;;;;;-6.08;94.85;100376.19;4188031;28;20576;-72
2023/12/05 03:36:09;;;;;;;67.03;24.30;;;;;;;-6.04;94.97;100376.97;4196645;28;21323;-72
2023/12/05 03:38:39;;;;;;;58.37;22.83;;;;;;;-6.04;94.79;100371.72;4195500;28;21562;-71
2023/12/05 03:41:09;;;;;;;69.00;24.57;;;;;;;-6.03;94.54;100372.59;4187287;28;20406;-71
2023/12/05 03:43:36;;;;;;;62.20;23.73;;;;;;;-6.01;95.00;100371.63;4180953;28;20635;-71
2023/12/05 03:46:03;;;;;;;62.87;23.77;;;;;;;-5.98;94.56;100375.91;4178906;28;20232;-70
2023/12/05 03:48:29;;;;;;;64.73;24.47;;;;;;;-6.02;94.54;100372.53;4202613;28;20493;-73
2023/12/05 03:50:56;;;;;;;61.93;23.67;;;;;;;-6.00;94.23;100365.47;4183622;28;20230;-72
2023/12/05 03:53:23;;;;;;;60.30;23.57;;;;;;;-5.97;94.37;100365.34;4195162;28;21833;-70
2023/12/05 03:55:50;;;;;;;68.53;26.13;;;;;;;-6.00;94.28;100359.34;4180499;28;20248;-71
2023/12/05 03:58:16;;;;;;;63.83;23.50;;;;;;;-5.97;94.13;100364.47;4191781;28;20907;-70
2023/12/05 04:00:43;;;;;;;67.47;25.70;;;;;;;-5.97;94.08;100360.09;4191108;28;20303;-72
2023/12/05 04:03:10;;;;;;;68.03;24.83;;;;;;;-5.94;93.79;100364.41;4188576;28;21129;-72
2023/12/05 04:05:38;;;;;;;62.70;24.40;;;;;;;-5.92;93.88;100360.81;4182054;28;20230;-71
2023/12/05 04:08:05;;;;;;;59.67;24.10;;;;;;;-5.80;93.96;100358.69;4186682;28;20225;-70
2023/12/05 04:10:33;;;;;;;61.57;24.33;;;;;;;-5.86;93.79;100353.63;4188385;28;20233;-67
2023/12/05 04:12:59;;;;;;;66.47;22.70;;;;;;;-5.82;93.78;100357.91;4183732;28;22778;-66
2023/12/05 04:15:26;;;;;;;67.73;23.87;;;;;;;-5.84;93.37;100351.81;4186475;28;20240;-67
2023/12/05 04:17:53;;;;;;;63.17;23.60;;;;;;;-5.82;93.27;100360.53;4172946;28;20322;-67
2023/12/05 04:20:21;;;;;;;64.30;22.07;;;;;;;-5.82;93.33;100356.13;4185315;28;20299;-67
2023/12/05 04:22:48;;;;;;;59.37;23.57;;;;;;;-5.76;93.29;100353.28;4190762;28;20230;-64
2023/12/05 04:25:16;;;;;;;63.20;24.80;;;;;;;-5.78;92.98;100343.72;4190087;28;20593;-66
2023/12/05 04:27:42;;;;;;;63.00;23.63;;;;;;;-5.76;92.93;100344.53;4187866;28;20391;-65
2023/12/05 04:30:10;;;;;;;56.17;21.30;;;;;;;-5.70;92.75;100344.34;4188366;28;20397;-65
2023/12/05 04:32:36;;;;;;;62.63;22.20;;;;;;;-5.64;93.05;100344.16;4187757;28;20803;-65
2023/12/05 04:35:04;;;;;;;60.83;23.97;;;;;;;-5.66;92.90;100334.56;4195577;28;20273;-66
2023/12/05 04:37:30;;;;;;;54.63;22.70;;;;;;;-5.66;92.47;100335.41;4192248;28;20233;-66
2023/12/05 04:39:57;;;;;;;53.03;22.30;;;;;;;-5.65;92.52;100336.28;4186366;28;25449;-65
2023/12/05 04:42:23;;;;;;;59.23;23.47;;;;;;;-5.64;92.49;100341.50;4183665;28;20344;-67
2023/12/05 04:44:50;;;;;;;62.53;22.73;;;;;;;-5.63;92.16;100342.41;4186497;28;20241;-66
2023/12/05 04:47:17;;;;;;;57.60;22.33;;;;;;;-5.64;92.14;100332.75;4189860;28;20237;-64
2023/12/05 04:49:43;;;;;;;56.90;21.77;;;;;;;-5.66;92.28;100337.19;4181742;28;20680;-66
2023/12/05 04:52:12;;;;;;;55.27;22.00;;;;;;;-5.64;92.05;100332.75;4178166;28;20250;-68
2023/12/05 04:54:39;;;;;;;52.73;21.90;;;;;;;-5.61;92.43;100340.56;4182721;28;20256;-66
2023/12/05 04:57:05;;;;;;;54.43;21.90;;;;;;;-5.65;91.86;100338.94;4189932;28;20661;-65
2023/12/05 04:59:32;;;;;;;58.57;21.50;;;;;;;-5.67;92.13;100343.38;4183496;28;20243;-67
2023/12/05 05:01:59;;;;;;;69.17;23.33;;;;;;;-5.67;92.04;100335.47;4183819;28;20249;-66
2023/12/05 05:04:26;;;;;;;53.83;22.03;;;;;;;-5.67;92.31;100338.09;4188522;28;20225;-65
2023/12/05 05:06:53;;;;;;;61.57;23.03;;;;;;;-5.68;92.29;100339.91;4184567;28;20233;-64
2023/12/05 05:09:19;;;;;;;56.03;22.40;;;;;;;-5.71;92.34;100341.75;4186231;28;20250;-65
2023/12/05 05:11:46;;;;;;;56.13;22.40;;;;;;;-5.70;92.53;100331.16;4185089;28;20237;-64
2023/12/05 05:14:13;;;;;;;60.80;22.40;;;;;;;-5.65;91.87;100336.28;4184983;28;22922;-66
2023/12/05 05:16:39;;;;;;;52.30;21.40;;;;;;;-5.60;91.67;100339.66;4186898;28;20329;-66
2023/12/05 05:19:06;;;;;;;56.47;21.40;;;;;;;-5.64;92.04;100336.25;4194690;28;20282;-65
2023/12/05 05:21:33;;;;;;;53.57;20.07;;;;;;;-5.68;91.97;100339.91;4183572;28;20283;-65
2023/12/05 05:23:59;;;;;;;55.73;22.10;;;;;;;-5.68;92.01;100347.81;4188764;28;23378;-63
2023/12/05 05:26:26;;;;;;;58.50;22.47;;;;;;;-5.71;92.23;100337.34;4185222;28;20298;-66
2023/12/05 05:28:53;;;;;;;62.23;22.33;;;;;;;-5.69;92.06;100346.06;4185246;28;20235;-67
2023/12/05 05:31:19;;;;;;;55.83;22.30;;;;;;;-5.71;92.24;100337.34;4195683;28;25502;-65
2023/12/05 05:33:46;;;;;;;54.60;22.03;;;;;;;-5.66;91.91;100340.69;4191189;28;20240;-66
2023/12/05 05:36:13;;;;;;;50.37;20.57;;;;;;;-5.74;91.60;100329.53;4171651;28;20449;-67
2023/12/05 05:38:40;;;;;;;53.83;21.27;;;;;;;-5.74;91.92;100343.56;4179547;28;22311;-66
2023/12/05 05:41:07;;;;;;;63.30;22.30;;;;;;;-5.74;91.65;100342.72;4191367;28;22120;-67
2023/12/05 05:43:34;;;;;;;50.37;21.00;;;;;;;-5.78;91.59;100338.44;4188447;28;21171;-65
2023/12/05 05:46:01;;;;;;;57.93;22.17;;;;;;;-5.78;91.88;100348.97;4181042;28;20305;-67
2023/12/05 05:48:28;;;;;;;54.50;20.37;;;;;;;-5.78;91.99;100341.91;4190101;28;20329;-66
2023/12/05 05:50:55;;;;;;;55.17;21.07;;;;;;;-5.79;91.85;100331.44;4195213;28;20244;-65
2023/12/05 05:53:22;;;;;;;60.57;22.27;;;;;;;-5.83;91.88;100335.09;4186990;28;20230;-66
2023/12/05 05:55:48;;;;;;;54.77;20.90;;;;;;;-5.88;92.04;100332.56;4184648;28;21606;-66
2023/12/05 05:58:15;;;;;;;56.37;21.83;;;;;;;-5.86;92.59;100335.16;4187280;28;23462;-67
2023/12/05 06:00:42;;;;;;;54.27;21.93;;;;;;;-5.98;92.63;100324.09;4188990;28;20300;-67
2023/12/05 06:03:09;;;;;;;60.40;22.00;;;;;;;-5.85;92.32;100332.47;4185602;28;20326;-67
2023/12/05 06:05:36;;;;;;;63.37;22.63;;;;;;;-5.84;92.42;100333.34;4203268;28;20241;-68
2023/12/05 06:08:03;;;;;;;61.87;22.73;;;;;;;-5.85;92.36;100328.97;4184038;28;20734;-68
2023/12/05 06:10:29;;;;;;;55.63;22.60;;;;;;;-5.90;92.66;100322.09;4187475;28;20595;-67
2023/12/05 06:12:56;;;;;;;59.97;22.23;;;;;;;-5.84;92.42;100322.81;4184824;28;21134;-68
2023/12/05 06:15:23;;;;;;;57.63;22.33;;;;;;;-5.86;92.46;100329.88;4190879;28;21284;-67
2023/12/05 06:17:50;;;;;;;54.90;20.90;;;;;;;-5.92;92.46;100317.75;4186906;28;21065;-67
2023/12/05 06:20:17;;;;;;;58.53;21.07;;;;;;;-5.82;92.12;100326.28;4188736;28;20419;-67
2023/12/05 06:22:43;;;;;;;57.50;21.30;;;;;;;-5.81;92.03;100327.97;4188869;28;21220;-66
2023/12/05 06:25:10;;;;;;;56.00;20.57;;;;;;;-5.80;92.18;100325.31;4192985;28;20328;-69
2023/12/05 06:27:37;;;;;;;63.07;22.40;;;;;;;-5.86;92.07;100317.59;4185861;28;20316;-67
2023/12/05 06:30:04;;;;;;;54.07;21.27;;;;;;;-5.84;92.10;100321.03;4189928;28;20763;-68
2023/12/05 06:32:46;;;;;;;55.77;20.57;;;;;;;-5.84;92.25;100315.75;4189351;28;22388;-66
2023/12/05 06:35:13;;;;;;;52.83;19.43;;;;;;;-5.82;91.88;100319.22;4190797;28;21738;-68
2023/12/05 06:37:40;;;;;;;56.63;20.57;;;;;;;-5.82;92.21;100318.34;4177835;28;20308;-70
2023/12/05 06:40:07;;;;;;;56.73;20.80;;;;;;;-5.80;91.61;100317.41;4180087;28;21641;-70
2023/12/05 06:42:35;;;;;;;52.20;20.53;;;;;;;-5.80;91.77;100321.78;4172213;28;25340;-68
2023/12/05 06:45:02;;;;;;;55.00;20.80;;;;;;;-5.76;91.84;100315.53;4192038;28;22372;-69
2023/12/05 06:47:30;;;;;;;55.93;21.37;;;;;;;-5.80;91.54;100316.50;4193199;28;20236;-70
2023/12/05 06:50:01;;;;;;;54.17;20.37;;;;;;;-5.89;92.23;100318.50;4184228;28;21668;-70
2023/12/05 06:52:30;;;;;;;52.77;21.00;;;;;;;-5.90;92.27;100322.09;4197080;28;20230;-72
2023/12/05 06:54:56;;;;;;;50.67;19.97;;;;;;;-5.88;92.35;100322.03;4186507;28;20233;-70
2023/12/05 06:57:23;;;;;;;58.00;21.33;;;;;;;-5.89;92.35;100323.78;4182958;28;21933;-67
2023/12/05 06:59:50;;;;;;;60.40;21.30;;;;;;;-5.86;92.35;100321.97;4193042;28;20257;-66
2023/12/05 07:02:17;;;;;;;54.83;20.77;;;;;;;-5.97;92.59;100324.94;4178449;28;21078;-67
2023/12/05 07:04:43;;;;;;;58.53;21.93;;;;;;;-5.99;93.00;100318.88;4184142;28;20241;-67
2023/12/05 07:07:11;;;;;;;51.00;20.40;;;;;;;-5.96;92.76;100319.59;4192409;28;22649;-66
2023/12/05 07:09:38;;;;;;;59.10;21.57;;;;;;;-5.89;92.28;100315.03;4195052;28;23802;-65
2023/12/05 07:12:05;;;;;;;51.17;20.07;;;;;;;-5.84;92.53;100317.53;4180109;28;21174;-70
2023/12/05 07:14:35;;;;;;;60.33;21.53;;;;;;;-5.85;91.87;100316.66;4199872;28;22009;-66
2023/12/05 07:17:02;;;;;;;52.17;20.80;;;;;;;-5.86;92.00;100307.03;4189113;28;22126;-66
2023/12/05 07:19:29;;;;;;;55.37;19.93;;;;;;;-5.76;91.92;100303.19;4190826;28;20408;-66
2023/12/05 07:21:56;;;;;;;50.90;19.37;;;;;;;-5.64;91.36;100312.50;4181906;28;20291;-67
2023/12/05 07:24:23;;;;;;;53.47;20.30;;;;;;;-5.64;91.03;100301.97;4196463;28;22254;-65
2023/12/05 07:26:50;;;;;;;51.80;20.53;;;;;;;-5.59;90.89;100310.56;4207149;28;20245;-66
2023/12/05 07:29:17;;;;;;;51.10;20.00;;;;;;;-5.71;91.23;100310.13;4200832;28;21755;-68
2023/12/05 07:31:44;;;;;;;57.97;21.13;;;;;;;-5.71;91.29;100312.75;4182660;28;22737;-68
2023/12/05 07:34:11;;;;;;;50.10;19.63;;;;;;;-5.71;91.12;100310.13;4188234;28;20241;-65
2023/12/05 07:36:41;;;;;;;57.23;20.67;;;;;;;-5.65;90.94;100296.75;4182993;28;22349;-66
2023/12/05 07:39:15;;;;;;;55.10;21.43;;;;;;;-5.64;91.32;100311.66;4186059;28;20271;-67
2023/12/05 07:41:42;;;;;;;50.43;19.60;;;;;;;-5.68;91.29;100302.09;4169752;28;20238;-67
2023/12/05 07:44:10;;;;;;;53.90;20.23;;;;;;;-5.47;90.88;100300.56;4190430;28;20230;-66
2023/12/05 07:46:40;;;;;;;58.27;20.67;;;;;;;-5.37;90.15;100303.78;4191133;28;20258;-67
2023/12/05 07:49:07;;;;;;;55.97;20.93;;;;;;;-5.39;90.02;100305.59;4185451;28;20241;-67
2023/12/05 07:51:35;;;;;;;57.73;20.67;;;;;;;-5.37;89.84;100298.50;4186779;28;20955;-68
2023/12/05 07:54:03;;;;;;;46.87;20.37;;;;;;;-5.29;89.63;100301.75;4195275;28;20225;-66
2023/12/05 07:56:31;;;;;;;50.83;19.40;;;;;;;-5.18;88.77;100301.41;4204152;28;20236;-66
2023/12/05 07:58:58;;;;;;;53.60;20.00;;;;;;;-5.19;88.95;100291.75;4190211;28;20336;-67
2023/12/05 08:01:24;;;;;;;50.80;19.47;;;;;;;-5.18;88.37;100283.81;4200317;28;22373;-74
2023/12/05 08:03:51;;;;;;;50.87;20.23;;;;;;;-5.10;88.67;100291.44;4202665;28;20246;-65
2023/12/05 08:06:18;;;;;;;49.97;20.77;;;;;;;-4.91;87.68;100289.06;4187816;28;22396;-66
2023/12/05 08:08:45;;;;;;;48.40;18.20;;;;;;;-4.85;87.51;100286.19;4182566;28;21309;-68
2023/12/05 08:11:12;;;;;;;51.30;19.20;;;;;;;-4.62;86.85;100287.16;4185423;28;20266;-65
2023/12/05 08:13:38;;;;;;;48.90;19.17;;;;;;;-4.48;85.64;100286.69;4205499;28;20236;-68
2023/12/05 08:16:05;;;;;;;49.37;19.30;;;;;;;-4.64;85.69;100283.69;4193897;28;20245;-68
2023/12/05 08:18:32;;;;;;;57.03;20.47;;;;;;;-4.52;85.23;100285.03;4175204;28;22907;-69
2023/12/05 08:20:59;;;;;;;56.10;19.57;;;;;;;-4.35;84.64;100281.81;4200301;28;20226;-68
2023/12/05 08:23:26;;;;;;;47.93;19.50;;;;;;;-4.40;84.47;100284.63;4188167;28;20318;-66
2023/12/05 08:25:53;;;;;;;54.30;19.93;;;;;;;-4.21;84.24;100278.66;4192663;28;21051;-68
2023/12/05 08:28:19;;;;;;;53.17;19.50;;;;;;;-4.27;83.71;100286.81;4192625;28;20230;-66
2023/12/05 08:30:46;;;;;;;52.53;18.17;;;;;;;-3.64;81.78;100283.56;4179450;28;20259;-68
2023/12/05 08:33:16;;;;;;;49.83;19.00;;;;;;;-2.20;77.15;100288.09;4190150;28;20242;-70
2023/12/05 08:35:43;;;;;;;47.10;18.47;;;;;;;-1.05;73.51;100286.19;4180057;28;20398;-67
2023/12/05 08:38:09;;;;;;;44.07;18.67;;;;;;;-0.06;66.37;100286.38;4188520;28;20308;-67
2023/12/05 08:40:36;;;;;;;43.87;17.27;;;;;;;1.46;63.00;100289.31;4201411;28;20319;-70
2023/12/05 08:43:04;;;;;;;45.80;17.57;;;;;;;2.57;56.42;100286.84;4201952;28;20241;-66
2023/12/05 08:45:30;;;;;;;50.00;18.50;;;;;;;2.01;57.01;100289.53;4200887;28;20230;-66
2023/12/05 08:47:57;;;;;;;43.10;16.37;;;;;;;3.14;52.82;100287.59;4200074;28;22013;-68
2023/12/05 08:50:26;;;;;;;45.37;17.27;;;;;;;3.67;50.98;100276.00;4186017;28;21857;-69
2023/12/05 08:52:52;;;;;;;45.93;18.40;;;;;;;3.33;51.13;100281.88;4190999;28;20304;-67
2023/12/05 08:55:20;;;;;;;45.00;18.17;;;;;;;3.09;51.64;100284.41;4183482;28;20239;-67
2023/12/05 08:57:47;;;;;;;42.67;17.73;;;;;;;3.44;49.93;100284.66;4188293;28;20233;-68
2023/12/05 09:00:14;;;;;;;49.87;18.60;;;;;;;3.13;52.10;100281.41;4184793;28;20638;-68
2023/12/05 09:02:40;;;;;;;53.97;19.40;;;;;;;1.43;56.07;100286.81;4187880;28;20644;-66
2023/12/05 09:05:07;;;;;;;45.13;18.37;;;;;;;2.71;52.76;100282.44;4187939;28;21143;-68
2023/12/05 09:07:34;;;;;;;46.47;19.20;;;;;;;3.12;51.32;100293.06;4178504;28;20296;-67
2023/12/05 09:10:01;;;;;;;42.23;18.97;;;;;;;4.78;47.51;100277.94;4190822;28;21168;-69
2023/12/05 09:12:28;;;;;;;38.17;17.87;;;;;;;5.05;46.40;100273.16;4174840;28;20882;-66
2023/12/05 09:14:55;;;;;;;46.70;18.83;;;;;;;6.43;44.03;100267.00;4182925;28;21761;-69
2023/12/05 09:17:21;;;;;;;42.77;18.63;;;;;;;4.71;45.18;100259.63;4186216;28;20239;-67
2023/12/05 09:19:50;;;;;;;39.67;17.93;;;;;;;6.31;44.12;100256.25;4194586;28;21197;-67
2023/12/05 09:22:18;;;;;;;43.90;18.13;;;;;;;4.92;46.52;100261.66;4179631;28;20374;-65
2023/12/05 09:24:44;;;;;;;44.70;18.20;;;;;;;4.22;47.33;100248.00;4187445;28;22333;-67
2023/12/05 09:27:12;;;;;;;42.67;17.93;;;;;;;6.36;45.12;100247.81;4179463;28;20392;-68
2023/12/05 09:29:38;;;;;;;43.50;18.07;;;;;;;7.31;41.57;100251.66;4184362;28;20360;-67
2023/12/05 09:32:17;;;;;;;39.97;17.40;;;;;;;7.97;39.94;100246.94;4208231;28;20237;-67
2023/12/05 09:34:44;;;;;;;39.73;18.47;;;;;;;6.72;41.13;100248.47;4179966;28;20238;-68
2023/12/05 09:37:11;;;;;;;39.47;18.03;;;;;;;6.22;42.61;100240.91;4191079;28;20241;-68
2023/12/05 09:39:40;;;;;;;41.33;18.73;;;;;;;6.28;41.94;100242.22;4174002;28;20245;-65
2023/12/05 09:42:10;;;;;;;45.50;18.67;;;;;;;7.75;40.36;100236.19;4174353;28;21545;-66
2023/12/05 09:44:43;;;;;;;38.43;18.17;;;;;;;7.51;39.61;100244.56;4196665;28;21753;-67
2023/12/05 09:47:14;;;;;;;44.67;19.23;;;;;;;4.71;45.05;100246.22;4188103;28;20436;-65
2023/12/05 09:49:42;;;;;;;39.73;18.07;;;;;;;4.11;46.71;100250.56;4181908;28;21151;-68
2023/12/05 09:52:10;;;;;;;42.83;18.97;;;;;;;3.74;47.75;100254.03;4187695;28;21642;-66
2023/12/05 09:54:42;;;;;;;42.80;19.20;;;;;;;3.27;49.50;100256.38;4199376;28;20238;-69
2023/12/05 09:57:12;;;;;;;48.57;21.13;;;;;;;4.50;46.83;100254.00;4204603;28;21162;-68
2023/12/05 09:59:40;;;;;;;43.53;18.67;;;;;;;4.85;46.46;100250.53;4188916;28;20234;-68
2023/12/05 10:02:08;;;;;;;43.67;18.33;;;;;;;4.01;47.55;100244.16;4183014;28;20316;-68
2023/12/05 10:04:45;;;;;;;46.27;19.17;;;;;;;3.32;49.64;100248.88;4184662;28;20238;-67
2023/12/05 10:07:13;;;;;;;48.03;18.93;;;;;;;3.92;48.41;100243.88;4187928;28;20415;-67
2023/12/05 10:09:43;;;;;;;43.13;18.97;;;;;;;3.97;47.02;100240.84;4184943;28;20300;-68
2023/12/05 10:12:11;;;;;;;41.83;17.77;;;;;;;4.39;47.85;100244.06;4189400;28;20238;-67
2023/12/05 10:14:39;;;;;;;42.83;18.57;;;;;;;3.71;47.81;100237.34;4183090;28;20686;-68
2023/12/05 10:17:07;;;;;;;42.57;18.33;;;;;;;4.03;47.61;100229.72;4210559;28;21116;-67
2023/12/05 10:19:35;;;;;;;42.10;17.87;;;;;;;6.32;43.56;100238.31;4182129;28;20277;-66
2023/12/05 10:22:03;;;;;;;44.83;18.30;;;;;;;5.23;43.85;100230.66;4189220;28;20230;-68
2023/12/05 10:24:42;;;;;;;41.30;18.93;;;;;;;5.31;43.74;100234.56;4190492;28;21174;-67
2023/12/05 10:27:10;;;;;;;46.90;19.27;;;;;;;4.99;45.13;100229.84;4191508;28;20286;-66
2023/12/05 10:30:01;;;;;;;40.40;17.63;;;;;;;6.05;43.01;100223.44;4194125;28;21097;-66
2023/12/05 10:32:36;;;;;;;44.70;19.60;;;;;;;5.37;44.16;100226.91;4193265;28;20374;-74
2023/12/05 10:35:03;;;;;;;42.43;18.10;;;;;;;6.43;42.17;100222.13;4210983;28;20240;-75
2023/12/05 10:37:30;;;;;;;43.47;18.27;;;;;;;7.51;40.41;100220.31;4193274;28;22271;-57
2023/12/05 10:39:58;;;;;;;45.93;20.23;;;;;;;6.51;41.56;100213.47;4184932;28;20232;-64
2023/12/05 10:42:27;;;;;;;42.00;19.03;;;;;;;6.69;41.41;100212.88;4182118;28;20422;-64
2023/12/05 10:44:54;;;;;;;45.08;20.20;;;;;;;7.29;40.79;100213.22;4189750;28;20511;-65
2023/12/05 10:47:23;;;;;;;42.57;20.43;;;;;;;6.69;40.97;100197.63;4170442;28;20234;-68
2023/12/05 10:49:49;;;;;;;49.33;18.67;;;;;;;6.71;40.14;100195.66;4198930;28;20242;-65
2023/12/05 10:52:16;;;;;;;39.83;17.63;;;;;;;7.36;39.85;100198.25;4187463;28;20238;-64
2023/12/05 10:54:46;;;;;;;42.20;19.03;;;;;;;6.37;41.21;100203.00;4189080;28;20297;-66
2023/12/05 10:57:13;;;;;;;41.93;18.90;;;;;;;4.81;44.67;100189.19;4185530;28;20526;-65
2023/12/05 10:59:40;;;;;;;43.97;18.10;;;;;;;3.04;48.23;100191.09;4184309;28;20225;-66
2023/12/05 11:02:16;;;;;;;44.43;19.60;;;;;;;1.51;53.73;100195.69;4203134;28;20233;-68
2023/12/05 11:04:43;;;;;;;42.80;18.87;;;;;;;0.38;57.98;100194.34;4186160;28;21468;-64
2023/12/05 11:07:10;;;;;;;47.70;19.47;;;;;;;0.19;58.08;100198.06;4190527;28;20229;-65
2023/12/05 11:09:42;;;;;;;52.03;20.40;;;;;;;-0.46;61.25;100198.97;4203081;28;20735;-65
2023/12/05 11:12:09;;;;;;;52.93;20.30;;;;;;;-0.77;62.41;100191.78;4188394;28;21706;-64